Flight Track Log - Related Links

Times and Time Zones

All times are in EST time to prevent confusion due to time zone crossing. See the PDT4226 flight status page for this flight to view local times or setup timezone preferences in your user account.

Time Position Orientation Groundspeed Altitude Reporting Facility
EST Latitude Longitude Course Direction KTS MPH feet Rate Location/Type
Tue 11:49:33 AM 39.9000 -75.2333 303° West 120 138 500  Level Philadelphia TRACON
Tue 11:50:45 AM 39.9167 -75.2833 294° West 138 159 2,500 1,545 Climbing Philadelphia TRACON
Tue 11:51:45 AM 39.9167 -75.3333 270° West 137 158 3,900 1,389 Climbing Philadelphia TRACON
Tue 11:52:00 AM 40.0097 -75.3597 323° Northwest  Level FlightAware Approximate
Tue 11:52:33 AM 39.9333 -75.3833 294° West 154 177 5,000  Level Philadelphia TRACON
Tue 11:53:00 AM 40.0566 -75.4066 323° Northwest  Level FlightAware Approximate
Tue 11:53:33 AM 39.9500 -75.4333 294° West 178 205 6,100  Level Philadelphia TRACON
Tue 11:54:00 AM 40.1059 -75.4451 303° West  Level FlightAware Approximate
Tue 11:54:46 AM 40.0167 -75.4500 349° North 184 212 7,600  Level Philadelphia TRACON
Tue 11:55:34 AM 40.0500 -75.4667 339° North 181 208 8,600 1,244 Climbing Philadelphia TRACON
Tue 11:56:08 AM 40.0778 -75.4803 339° North 188 216 9,300 1,149 Climbing New York Center
Tue 11:57:08 AM 40.1167 -75.4992 340° North 182 209 10,400 900 Climbing New York Center
Tue 11:59:08 AM 40.2167 -75.5522 338° Northwest 197 227 12,000 767 Climbing New York Center
Tue 12:00:08 PM 40.2736 -75.5917 332° Northwest 209 241 12,700 800 Climbing New York Center
Tue 12:01:08 PM 40.3264 -75.6197 338° Northwest 209 241 13,600 650 Climbing New York Center
Tue 12:02:08 PM 40.3731 -75.6558 329° Northwest 204 235 14,000 200 Climbing New York Center
Tue 12:03:08 PM 40.4217 -75.6864 334° Northwest 204 235 14,000  Level New York Center
Tue 12:04:08 PM 40.4808 -75.7153 340° North 218 251 14,000  Level New York Center
Tue 12:05:08 PM 40.5372 -75.7631 327° Northwest 223 257 14,000  Level New York Center
Tue 12:06:08 PM 40.5853 -75.8128 322° Northwest 223 257 14,000  Level New York Center
Tue 12:07:08 PM 40.6353 -75.8603 324° Northwest 218 251 14,000  Level New York Center
Tue 12:08:08 PM 40.6792 -75.9047 322° Northwest 218 251 14,000 -50 Level New York Center
Tue 12:09:08 PM 40.7361 -75.9364 337° Northwest 218 251 13,900 -50 Descending New York Center
Tue 12:10:08 PM 40.7969 -75.9739 335° Northwest 218 251 13,900  Level New York Center
Tue 12:11:08 PM 40.8497 -76.0053 336° Northwest 224 258 13,900  Level New York Center
Tue 12:12:08 PM 40.9089 -76.0372 338° Northwest 224 258 13,900  Level New York Center
Tue 12:13:08 PM 40.9719 -76.0722 337° Northwest 230 265 13,900  Level New York Center
Tue 12:14:08 PM 41.0250 -76.0958 341° North 225 259 13,900 50 Level New York Center
Tue 12:15:08 PM 41.0819 -76.1278 337° Northwest 225 259 14,000 50 Climbing New York Center
Tue 12:16:08 PM 41.1450 -76.1603 339° North 225 259 14,000  Level New York Center
Tue 12:17:08 PM 41.2039 -76.1925 338° Northwest 225 259 14,000  Level New York Center
Tue 12:18:08 PM 41.2678 -76.2086 349° North 225 259 14,000  Level New York Center
Tue 12:19:08 PM 41.3308 -76.1972 North 237 273 14,000  Level New York Center
Tue 12:20:08 PM 41.3994 -76.1972 360° North 244 281 14,000  Level New York Center
Tue 12:21:08 PM 41.4767 -76.1953 North 244 281 14,000 -50 Level New York Center
Tue 12:22:08 PM 41.5481 -76.1844 North 249 287 13,900 -500 Descending New York Center
Tue 12:23:08 PM 41.6211 -76.1819 North 261 300 13,000 -1,150 Descending New York Center
Tue 12:24:08 PM 41.6900 -76.1764 North 267 307 11,600 -1,550 Descending New York Center
Tue 12:25:08 PM 41.7753 -76.1778 359° North 277 319 9,900 -1,550 Descending New York Center
Tue 12:26:08 PM 41.8525 -76.1756 North 277 319 8,500 -1,450 Descending New York Center
Tue 12:27:08 PM 41.9250 -76.1369 22° Northeast 265 305 7,000 -1,300 Descending New York Center
Tue 12:28:08 PM 41.9850 -76.1000 25° Northeast 265 305 5,900 -1,000 Descending New York Center
Tue 12:29:08 PM 42.0467 -76.0686 21° North 252 290 5,000 -900 Descending New York Center
Tue 12:30:08 PM 42.0933 -76.0025 46° Northeast 239 275 4,100 -850 Descending New York Center
Tue 12:31:08 PM 42.1356 -75.9444 46° Northeast 227 261 3,300 -750 Descending New York Center
Tue 12:32:08 PM 42.1708 -75.9472 357° North 146 168 2,600 -600 Descending New York Center
Tue 12:33:08 PM 42.2108 -75.9364 11° North 132 152 2,100 -500 Descending New York Center

Login

Don't have an account? Register now (free) for customized features, flight alerts, and more!